Time;durP1;ratioP1;P1;durP2;ratioP2;P2;SDS_P1;SDS_P2;PMS_P1;PMS_P2;Temp;Humidity;BMP_temperature;BMP_pressure;BME280_temperature;BME280_humidity;BME280_pressure;Samples;Min_cycle;Max_cycle;Signal;HPM_P1;HPM_P2
2022/10/20 00:01:55;;;;;;;;;;;;;;;;;;5140254;27;20346;-74
2022/10/20 19:43:41;;;;;;;;;;;;;;;;;;5220275;23;19930;-77
2022/10/20 19:46:07;;;;;;;;;;;;;;;;;;4965243;28;19931;-78
2022/10/20 19:48:33;;;;;;;;;;;;;;;;;;4967236;28;19926;-78
2022/10/20 19:50:59;;;;;;;;;;;;;;;;;;4968785;28;19927;-78
2022/10/20 19:53:26;;;;;;;;;;;;;;;;;;4963690;28;19976;-78
2022/10/20 19:55:52;;;;;;;;;;;;;;;;;;4978863;28;19973;-78
2022/10/20 19:58:19;;;;;;;;;;;;;;;;;;4971407;28;20300;-77
2022/10/20 20:00:45;;;;;;;;;;;;;;;;;;4967105;28;19930;-77
2022/10/20 20:03:10;;;;;;;;;;;;;;;;;;4971940;28;19926;-77
2022/10/20 20:05:36;;;;;;;;;;;;;;;;;;4970492;28;20051;-78
2022/10/20 20:08:02;;;;;;;;;;;;;;;;;;4961013;28;19989;-78
2022/10/20 20:10:28;;;;;;;;;;;;;;;;;;4969364;28;19926;-78
2022/10/20 20:12:54;;;;;;;;;;;;;;;;;;4966814;28;19926;-78
2022/10/20 20:15:20;;;;;;;;;;;;;;;;;;4956519;28;20357;-77
2022/10/20 20:17:46;;;;;;;;;;;;;;;;;;4966068;28;20275;-77
2022/10/20 20:20:12;;;;;;;;;;;;;;;;;;4966096;28;19973;-77
2022/10/20 20:22:38;;;;;;;;;;;;;;;;;;4968988;28;19926;-78
2022/10/20 20:25:04;;;;;;;;;;;;;;;;;;4967360;28;19926;-77
2022/10/20 20:27:30;;;;;;;;;;;;;;;;;;4970326;28;20009;-77
2022/10/20 20:30:01;;;;;;;;;;;;;;;;;;4968146;28;19973;-78
2022/10/20 20:32:27;;;;;;;;;;;;;;;;;;4961240;28;19973;-79
2022/10/20 20:34:52;;;;;;;;;;;;;;;;;;4961302;28;19934;-77
2022/10/20 20:37:19;;;;;;;;;;;;;;;;;;4965843;28;19926;-76
2022/10/20 20:39:45;;;;;;;;;;;;;;;;;;4966542;28;19933;-77
2022/10/20 20:42:11;;;;;;;;;;;;;;;;;;4967128;28;19926;-77
2022/10/20 20:44:37;;;;;;;;;;;;;;;;;;4967653;28;19934;-77
2022/10/20 20:47:03;;;;;;;;;;;;;;;;;;4966482;28;19982;-76
2022/10/20 20:49:29;;;;;;;;;;;;;;;;;;4972645;28;19930;-77
2022/10/20 20:51:55;;;;;;;;;;;;;;;;;;4967986;28;19926;-76
2022/10/20 20:54:21;;;;;;;;;;;;;;;;;;4971994;28;19941;-76
2022/10/20 20:56:47;;;;;;;;;;;;;;;;;;4968389;28;20427;-80
2022/10/20 20:59:13;;;;;;;;;;;;;;;;;;4965971;28;20368;-79
2022/10/20 21:01:39;;;;;;;;;;;;;;;;;;4970220;28;19926;-77
2022/10/20 21:04:08;;;;;;;;;;;;;;;;;;4972459;28;19933;-75
2022/10/20 21:06:34;;;;;;;;;;;;;;;;;;4966899;28;19970;-75
2022/10/20 21:09:00;;;;;;;;;;;;;;;;;;4967905;28;20377;-79
2022/10/20 21:11:26;;;;;;;;;;;;;;;;;;4970974;28;19930;-78
2022/10/20 21:13:52;;;;;;;;;;;;;;;;;;4963090;28;19934;-75
2022/10/20 21:16:18;;;;;;;;;;;;;;;;;;4957881;28;20373;-75
2022/10/20 21:18:44;;;;;;;;;;;;;;;;;;4964905;28;19934;-79
2022/10/20 21:21:10;;;;;;;;;;;;;;;;;;4966130;28;19988;-82
2022/10/20 21:23:36;;;;;;;;;;;;;;;;;;4965255;28;20289;-77
2022/10/20 21:26:02;;;;;;;;;;;;;;;;;;4964568;28;19937;-79
2022/10/20 21:28:28;;;;;;;;;;;;;;;;;;4965660;28;20076;-77
2022/10/20 21:30:54;;;;;;;;;;;;;;;;;;4965208;28;19972;-83
2022/10/20 21:33:20;;;;;;;;;;;;;;;;;;4968638;28;19976;-80
2022/10/20 21:35:46;;;;;;;;;;;;;;;;;;4953356;28;19965;-78
2022/10/20 21:38:12;;;;;;;;;;;;;;;;;;4969954;28;19922;-82
2022/10/20 21:40:38;;;;;;;;;;;;;;;;;;4963592;28;20336;-81
2022/10/20 21:43:07;;;;;;;;;;;;;;;;;;4961906;28;20300;-83
2022/10/20 21:45:33;;;;;;;;;;;;;;;;;;4948849;28;20288;-84
2022/10/20 21:47:59;;;;;;;;;;;;;;;;;;4962956;28;19930;-79
2022/10/20 21:50:25;;;;;;;;;;;;;;;;;;4966581;28;19941;-79
2022/10/20 21:52:51;;;;;;;;;;;;;;;;;;4964648;28;20479;-76
2022/10/20 21:55:17;;;;;;;;;;;;;;;;;;4963058;28;19926;-77
2022/10/20 21:57:43;;;;;;;;;;;;;;;;;;4961820;28;19930;-82
2022/10/20 22:00:09;;;;;;;;;;;;;;;;;;4965411;28;20024;-76
2022/10/20 22:02:35;;;;;;;;;;;;;;;;;;4963647;28;19933;-76
2022/10/20 22:05:01;;;;;;;;;;;;;;;;;;4966176;28;19976;-78
2022/10/20 22:07:27;;;;;;;;;;;;;;;;;;4968328;28;20005;-79
2022/10/20 22:09:53;;;;;;;;;;;;;;;;;;4967867;28;19937;-76
2022/10/20 22:12:19;;;;;;;;;;;;;;;;;;4958176;28;20369;-77
2022/10/20 22:14:45;;;;;;;;;;;;;;;;;;4968162;28;20401;-76
2022/10/20 22:17:10;;;;;;;;;;;;;;;;;;4966755;28;19931;-78
2022/10/20 22:19:36;;;;;;;;;;;;;;;;;;4965614;28;19926;-78
2022/10/20 22:22:02;;;;;;;;;;;;;;;;;;4965098;28;19931;-78
2022/10/20 22:24:29;;;;;;;;;;;;;;;;;;4960034;28;19970;-76
2022/10/20 22:26:55;;;;;;;;;;;;;;;;;;4966854;28;19930;-77
2022/10/20 22:29:21;;;;;;;;;;;;;;;;;;4967930;28;20155;-78
2022/10/20 22:31:47;;;;;;;;;;;;;;;;;;4967260;28;20016;-77
2022/10/20 22:34:13;;;;;;;;;;;;;;;;;;4969094;28;20013;-79
2022/10/20 22:36:39;;;;;;;;;;;;;;;;;;4968960;28;20005;-78
2022/10/20 22:39:05;;;;;;;;;;;;;;;;;;4968198;28;19980;-78
2022/10/20 22:41:31;;;;;;;;;;;;;;;;;;4968383;28;19926;-78
2022/10/20 22:43:57;;;;;;;;;;;;;;;;;;4967346;28;19934;-82
2022/10/20 22:46:23;;;;;;;;;;;;;;;;;;4959547;28;19926;-82
2022/10/20 22:48:49;;;;;;;;;;;;;;;;;;4965657;28;20334;-79
2022/10/20 22:51:15;;;;;;;;;;;;;;;;;;4964982;28;20425;-81
2022/10/20 22:53:41;;;;;;;;;;;;;;;;;;4967269;28;20305;-81
2022/10/20 22:56:07;;;;;;;;;;;;;;;;;;4961316;28;20349;-81
2022/10/20 22:58:33;;;;;;;;;;;;;;;;;;4969792;28;20332;-82
2022/10/20 23:00:59;;;;;;;;;;;;;;;;;;4965125;28;20293;-84
2022/10/20 23:03:24;;;;;;;;;;;;;;;;;;4957708;28;19930;-83
2022/10/20 23:05:50;;;;;;;;;;;;;;;;;;4961400;28;20022;-80
2022/10/20 23:08:16;;;;;;;;;;;;;;;;;;4965630;28;19965;-80
2022/10/20 23:10:42;;;;;;;;;;;;;;;;;;4968588;28;19929;-80
2022/10/20 23:13:08;;;;;;;;;;;;;;;;;;4971221;28;19929;-80
2022/10/20 23:15:34;;;;;;;;;;;;;;;;;;4967278;28;19965;-81
2022/10/20 23:18:00;;;;;;;;;;;;;;;;;;4960231;28;19937;-79
2022/10/20 23:20:26;;;;;;;;;;;;;;;;;;4968395;28;20427;-79
2022/10/20 23:22:52;;;;;;;;;;;;;;;;;;4944757;28;20289;-77
2022/10/20 23:25:18;;;;;;;;;;;;;;;;;;4967339;28;19930;-80
2022/10/20 23:27:44;;;;;;;;;;;;;;;;;;4965259;28;19933;-81
2022/10/20 23:30:10;;;;;;;;;;;;;;;;;;4961233;28;19942;-79
2022/10/20 23:32:36;;;;;;;;;;;;;;;;;;4964815;28;19973;-79
2022/10/20 23:35:02;;;;;;;;;;;;;;;;;;4963095;28;19926;-79
2022/10/20 23:37:28;;;;;;;;;;;;;;;;;;4963863;28;19926;-81
2022/10/20 23:39:54;;;;;;;;;;;;;;;;;;4965166;28;19926;-79
2022/10/20 23:42:20;;;;;;;;;;;;;;;;;;4963497;28;19934;-79
2022/10/20 23:44:46;;;;;;;;;;;;;;;;;;4962246;28;19934;-80
2022/10/20 23:47:12;;;;;;;;;;;;;;;;;;4964530;28;19926;-81
2022/10/20 23:49:37;;;;;;;;;;;;;;;;;;4965346;28;19926;-81
2022/10/20 23:52:03;;;;;;;;;;;;;;;;;;4963733;28;19973;-81
2022/10/20 23:54:29;;;;;;;;;;;;;;;;;;4961164;28;20424;-79
2022/10/20 23:56:55;;;;;;;;;;;;;;;;;;4963474;28;19926;-80
2022/10/20 23:59:21;;;;;;;;;;;;;;;;;;4964947;28;19930;-80
